createdAt,value
2019-02-20T00:01:27.489Z,100596.58
2019-02-20T00:04:30.988Z,100596.98
2019-02-20T00:07:34.492Z,100596.21
2019-02-20T00:10:38.092Z,100604.52
2019-02-20T00:13:41.571Z,100611.14
2019-02-20T00:16:45.204Z,100612.47
2019-02-20T00:19:48.727Z,100616.44
2019-02-20T00:22:58.049Z,100610.41
2019-02-20T00:26:01.638Z,100617.57
2019-02-20T00:29:05.093Z,100625.34
2019-02-20T00:32:08.659Z,100621.95
2019-02-20T00:35:12.149Z,100625.52
2019-02-20T00:38:15.669Z,100632.13
2019-02-20T00:41:21.197Z,100628.74
2019-02-20T00:44:46.830Z,100630.98
2019-02-20T00:48:12.213Z,100636.28
2019-02-20T00:51:26.241Z,100636.28
2019-02-20T00:54:29.893Z,100638.19
2019-02-20T00:57:33.344Z,100634.59
2019-02-20T01:00:36.796Z,100635.05
2019-02-20T01:03:40.297Z,100640.84
2019-02-20T01:06:45.256Z,100638.65
2019-02-20T01:09:48.927Z,100641.39
2019-02-20T01:12:52.532Z,100638.73
2019-02-20T01:15:56.036Z,100634.77
2019-02-20T01:18:59.540Z,100632.61
2019-02-20T01:22:04.072Z,100633.07
2019-02-20T01:25:08.588Z,100631.28
2019-02-20T01:28:12.030Z,100633.16
2019-02-20T01:31:15.480Z,100632.79
2019-02-20T01:34:19.005Z,100624.36
2019-02-20T01:37:22.505Z,100628.73
2019-02-20T01:40:25.980Z,100622.57
2019-02-20T01:43:29.430Z,100625.68
2019-02-20T01:46:32.873Z,100622.66
2019-02-20T01:49:36.403Z,100630.60
2019-02-20T01:52:39.890Z,100625.31
2019-02-20T01:55:43.409Z,100628.50
2019-02-20T01:58:46.898Z,100627.18
2019-02-20T02:01:50.414Z,100622.75
2019-02-20T02:04:54.916Z,100632.02
2019-02-20T02:07:58.423Z,100634.20
2019-02-20T02:11:01.925Z,100635.12
2019-02-20T02:14:05.464Z,100627.18
2019-02-20T02:17:09.959Z,100625.86
2019-02-20T02:20:13.431Z,100628.50
2019-02-20T02:23:20.094Z,100629.09
2019-02-20T02:26:23.173Z,100622.84
2019-02-20T02:29:26.814Z,100630.87
2019-02-20T02:32:30.338Z,100623.02
2019-02-20T02:35:33.834Z,100629.63
2019-02-20T02:38:39.384Z,100628.31
2019-02-20T02:41:44.753Z,100638.90
2019-02-20T02:44:49.153Z,100630.59
2019-02-20T02:47:52.737Z,100633.61
2019-02-20T02:50:56.181Z,100627.56
2019-02-20T02:53:59.896Z,100635.51
2019-02-20T02:57:03.452Z,100635.02
2019-02-20T03:00:07.350Z,100638.16
2019-02-20T03:03:11.898Z,100637.01
2019-02-20T03:06:15.381Z,100640.02
2019-02-20T03:09:18.826Z,100636.92
2019-02-20T03:12:22.304Z,100636.92
2019-02-20T03:15:25.784Z,100640.11
2019-02-20T03:18:29.399Z,100643.99
2019-02-20T03:21:33.920Z,100646.27
2019-02-20T03:24:37.432Z,100644.95
2019-02-20T03:27:41.929Z,100657.31
2019-02-20T03:30:46.496Z,100646.27
2019-02-20T03:33:50.084Z,100652.89
2019-02-20T03:36:53.692Z,100656.08
2019-02-20T03:39:57.187Z,100660.05
2019-02-20T03:43:00.639Z,100660.91
2019-02-20T03:46:04.210Z,100671.05
2019-02-20T03:49:13.511Z,100671.95
2019-02-20T03:52:16.999Z,100671.05
2019-02-20T03:55:20.535Z,100680.77
2019-02-20T03:58:23.970Z,100674.69
2019-02-20T04:01:27.432Z,100669.48
2019-02-20T04:04:30.912Z,100671.95
2019-02-20T04:07:36.460Z,100671.59
2019-02-20T04:10:39.900Z,100671.22
2019-02-20T04:13:43.350Z,100677.83
2019-02-20T04:16:46.825Z,100674.78
2019-02-20T04:19:50.312Z,100676.10
2019-02-20T04:22:53.970Z,100669.48
2019-02-20T04:25:57.478Z,100684.53
2019-02-20T04:29:02.001Z,100674.03
2019-02-20T04:32:06.533Z,100676.68
2019-02-20T04:35:09.988Z,100685.53
2019-02-20T04:38:14.436Z,100676.68
2019-02-20T04:41:17.943Z,100669.58
2019-02-20T04:44:21.466Z,100677.23
2019-02-20T04:47:26.062Z,100678.55
2019-02-20T04:50:29.607Z,100672.30
2019-02-20T04:53:35.128Z,100667.13
2019-02-20T04:56:39.667Z,100678.92
2019-02-20T04:59:44.181Z,100681.11
2019-02-20T05:02:49.706Z,100688.77
2019-02-20T05:05:54.252Z,100684.80
2019-02-20T05:09:00.320Z,100686.66
2019-02-20T05:12:03.940Z,100681.77
2019-02-20T05:15:07.418Z,100682.52
2019-02-20T05:18:10.928Z,100680.45
2019-02-20T05:21:14.418Z,100677.80
2019-02-20T05:24:24.654Z,100680.45
2019-02-20T05:27:23.244Z,100679.59
2019-02-20T05:30:26.688Z,100683.09
2019-02-20T05:33:30.154Z,100689.30
2019-02-20T05:36:33.691Z,100681.37
2019-02-20T05:39:37.173Z,100686.74
2019-02-20T05:42:40.659Z,100684.96
2019-02-20T05:45:44.171Z,100685.91
2019-02-20T05:48:47.665Z,100678.34
2019-02-20T05:51:51.152Z,100681.45
2019-02-20T05:54:54.703Z,100698.20
2019-02-20T05:57:58.263Z,100700.06
2019-02-20T06:01:01.787Z,100708.41
2019-02-20T06:04:05.324Z,100707.08
2019-02-20T06:07:09.793Z,100715.94
2019-02-20T06:10:13.287Z,100711.97
2019-02-20T06:13:16.793Z,100717.66
2019-02-20T06:16:22.349Z,100725.61
2019-02-20T06:19:29.031Z,100734.09
2019-02-20T06:22:32.489Z,100731.81
2019-02-20T06:25:36.164Z,100745.99
2019-02-20T06:28:39.622Z,100751.28
2019-02-20T06:31:43.143Z,100760.92
2019-02-20T06:34:46.642Z,100765.47
2019-02-20T06:37:51.176Z,100763.56
2019-02-20T06:40:55.707Z,100768.48
2019-02-20T06:43:59.187Z,100768.86
2019-02-20T06:47:04.733Z,100768.48
2019-02-20T06:50:08.270Z,100772.45
2019-02-20T06:53:11.735Z,100773.40
2019-02-20T06:56:15.255Z,100787.50
2019-02-20T06:59:18.743Z,100794.56
2019-02-20T07:02:22.331Z,100799.08
2019-02-20T07:05:30.909Z,100793.78
2019-02-20T07:09:11.770Z,100799.48
2019-02-20T07:12:36.324Z,100804.37
2019-02-20T07:16:31.138Z,100801.19
2019-02-20T07:19:50.622Z,100812.72
2019-02-20T07:23:08.135Z,100815.81
2019-02-20T07:27:01.254Z,100815.81
2019-02-20T07:30:07.053Z,100826.86
2019-02-20T07:33:11.580Z,100822.52
2019-02-20T07:36:15.144Z,100837.06
2019-02-20T07:39:19.133Z,100842.36
2019-02-20T07:42:22.730Z,100839.34
2019-02-20T07:45:27.224Z,100840.50
2019-02-20T07:48:30.734Z,100850.30
2019-02-20T07:51:34.230Z,100858.23
2019-02-20T07:54:37.826Z,100848.97
2019-02-20T07:57:43.270Z,100851.16
2019-02-20T08:00:46.794Z,100857.86
2019-02-20T08:03:51.293Z,100864.84
2019-02-20T08:06:54.856Z,100870.14
2019-02-20T08:09:58.304Z,100864.31
2019-02-20T08:13:01.813Z,100866.39
2019-02-20T08:16:05.322Z,100869.81
2019-02-20T08:19:08.818Z,100871.89
2019-02-20T08:22:12.260Z,100872.67
2019-02-20T08:25:22.455Z,100877.51
2019-02-20T08:28:23.267Z,100886.66
2019-02-20T08:31:27.083Z,100891.12
2019-02-20T08:34:30.839Z,100884.95
2019-02-20T08:37:34.327Z,100885.33
2019-02-20T08:40:37.840Z,100875.32
2019-02-20T08:43:41.358Z,100883.09
2019-02-20T08:46:44.836Z,100890.17
2019-02-20T08:49:48.533Z,100891.95
2019-02-20T08:52:52.019Z,100891.95
2019-02-20T08:55:55.559Z,100895.92
2019-02-20T08:58:59.010Z,100902.53
2019-02-20T09:02:03.559Z,100910.89
2019-02-20T09:05:07.716Z,100916.18
2019-02-20T09:08:12.214Z,100908.70
2019-02-20T09:11:15.719Z,100915.69
2019-02-20T09:14:19.196Z,100917.01
2019-02-20T09:17:22.721Z,100926.19
2019-02-20T09:20:26.212Z,100922.22
2019-02-20T09:23:31.755Z,100923.95
2019-02-20T09:26:36.283Z,100911.64
2019-02-20T09:29:39.770Z,100918.83
2019-02-20T09:32:43.285Z,100922.72
2019-02-20T09:35:47.001Z,100920.52
2019-02-20T09:38:50.502Z,100920.45
2019-02-20T09:41:54.093Z,100920.98
2019-02-20T09:44:57.588Z,100920.90
2019-02-20T09:48:01.222Z,100932.44
2019-02-20T09:51:04.684Z,100924.87
2019-02-20T09:54:08.189Z,100916.93
2019-02-20T09:57:11.717Z,100920.90
2019-02-20T10:00:16.232Z,100923.55
2019-02-20T10:03:20.019Z,100927.52
2019-02-20T10:06:23.729Z,100921.69
2019-02-20T10:09:27.337Z,100924.33
2019-02-20T10:12:30.879Z,100924.49
2019-02-20T10:15:35.050Z,100932.56
2019-02-20T10:18:38.772Z,100925.12
2019-02-20T10:21:42.279Z,100922.36
2019-02-20T10:24:46.910Z,100924.92
2019-02-20T10:27:50.390Z,100925.33
2019-02-20T10:30:53.880Z,100929.14
2019-02-20T10:33:57.523Z,100917.61
2019-02-20T10:37:03.149Z,100921.00
2019-02-20T10:40:06.835Z,100923.48
2019-02-20T10:43:10.364Z,100918.60
2019-02-20T10:46:13.860Z,100920.67
2019-02-20T10:49:17.345Z,100926.75
2019-02-20T10:52:22.905Z,100927.05
2019-02-20T10:55:26.364Z,100913.19
2019-02-20T10:58:30.930Z,100912.98
2019-02-20T11:01:34.442Z,100917.74
2019-02-20T11:04:38.949Z,100929.50
2019-02-20T11:07:42.467Z,100931.19
2019-02-20T11:10:45.975Z,100927.59
2019-02-20T11:13:49.464Z,100933.59
2019-02-20T11:16:52.967Z,100936.61
2019-02-20T11:19:56.419Z,100937.31
2019-02-20T11:23:01.005Z,100933.72
2019-02-20T11:26:05.505Z,100924.82
2019-02-20T11:29:11.065Z,100922.95
2019-02-20T11:32:15.600Z,100927.47
2019-02-20T11:35:19.100Z,100929.58
2019-02-20T11:38:24.643Z,100934.88
2019-02-20T11:41:28.119Z,100925.14
2019-02-20T11:44:33.670Z,100917.66
2019-02-20T11:47:37.183Z,100913.69
2019-02-20T11:50:40.756Z,100911.82
2019-02-20T11:53:46.091Z,100909.05
2019-02-20T11:56:49.740Z,100908.14
2019-02-20T11:59:55.307Z,100905.78
2019-02-20T12:02:58.854Z,100914.09
2019-02-20T12:06:02.509Z,100908.58
2019-02-20T12:09:06.432Z,100908.41
2019-02-20T12:12:09.920Z,100895.45
2019-02-20T12:15:13.500Z,100896.60
2019-02-20T12:18:17.695Z,100907.98
2019-02-20T12:21:21.118Z,100912.88
2019-02-20T12:24:25.119Z,100914.03
2019-02-20T12:27:33.199Z,100915.35
2019-02-20T12:30:38.105Z,100914.81
2019-02-20T12:33:42.854Z,100908.19
2019-02-20T12:36:47.338Z,100904.95
2019-02-20T12:39:51.902Z,100911.66
2019-02-20T12:42:55.629Z,100914.81
2019-02-20T12:46:00.022Z,100911.98
2019-02-20T12:49:03.702Z,100901.67
2019-02-20T12:52:08.312Z,100894.37
2019-02-20T12:55:11.875Z,100899.30
2019-02-20T12:58:15.445Z,100890.41
2019-02-20T13:01:18.926Z,100888.99
2019-02-20T13:04:22.415Z,100889.86
2019-02-20T13:07:26.981Z,100891.01
2019-02-20T13:10:30.551Z,100891.58
2019-02-20T13:13:34.161Z,100894.81
2019-02-20T13:16:38.779Z,100893.31
2019-02-20T13:19:42.376Z,100890.25
2019-02-20T13:22:45.922Z,100890.95
2019-02-20T13:25:49.413Z,100888.66
2019-02-20T13:28:52.928Z,100889.53
2019-02-20T13:31:56.409Z,100886.47
2019-02-20T13:34:59.898Z,100891.41
2019-02-20T13:38:03.436Z,100900.51
2019-02-20T13:41:06.948Z,100901.83
2019-02-20T13:44:12.975Z,100903.62
2019-02-20T13:47:16.556Z,100902.61
2019-02-20T13:50:20.078Z,100898.05
2019-02-20T13:53:23.579Z,100894.48
2019-02-20T13:56:27.075Z,100910.39
2019-02-20T13:59:30.689Z,100903.36
2019-02-20T14:02:34.264Z,100908.11
2019-02-20T14:05:37.852Z,100911.13
2019-02-20T14:08:41.489Z,100912.09
2019-02-20T14:11:45.416Z,100908.94
2019-02-20T14:14:49.100Z,100913.41
2019-02-20T14:17:52.659Z,100909.98
2019-02-20T14:20:56.525Z,100916.61
2019-02-20T14:24:00.038Z,100922.49
2019-02-20T14:27:10.770Z,100918.89
2019-02-20T14:30:11.968Z,100921.54
2019-02-20T14:33:15.471Z,100921.16
2019-02-20T14:36:18.925Z,100913.22
2019-02-20T14:39:22.850Z,100915.86
2019-02-20T14:42:26.435Z,100913.30
2019-02-20T14:45:30.075Z,100915.63
2019-02-20T14:48:35.004Z,100916.04
2019-02-20T14:51:38.464Z,100921.34
2019-02-20T14:54:42.086Z,100912.98
2019-02-20T14:57:45.786Z,100913.94
2019-02-20T15:00:49.401Z,100908.27
2019-02-20T15:03:52.914Z,100910.91
2019-02-20T15:06:56.347Z,100913.56
2019-02-20T15:10:00.982Z,100914.52
2019-02-20T15:13:04.716Z,100914.02
2019-02-20T15:16:08.327Z,100912.33
2019-02-20T15:19:12.851Z,100913.66
2019-02-20T15:22:16.344Z,100918.09
2019-02-20T15:25:19.870Z,100916.76
2019-02-20T15:28:23.384Z,100919.41
2019-02-20T15:31:33.415Z,100921.69
2019-02-20T15:34:32.210Z,100923.02
2019-02-20T15:37:36.814Z,100919.99
2019-02-20T15:40:40.446Z,100926.99
2019-02-20T15:43:44.001Z,100925.66
2019-02-20T15:46:47.664Z,100932.37
2019-02-20T15:49:51.142Z,100939.47
2019-02-20T15:52:55.760Z,100933.79
2019-02-20T15:55:59.390Z,100941.37
2019-02-20T15:59:02.868Z,100959.03
2019-02-20T16:02:06.466Z,100948.69
2019-02-20T16:05:11.138Z,100953.72
2019-02-20T16:08:14.600Z,100950.98
2019-02-20T16:11:20.995Z,100957.91
2019-02-20T16:14:26.525Z,100964.16
2019-02-20T16:17:30.031Z,100955.25
2019-02-20T16:20:33.714Z,100959.23
2019-02-20T16:23:37.231Z,100960.55
2019-02-20T16:26:40.743Z,100966.27
2019-02-20T16:29:44.247Z,100963.61
2019-02-20T16:32:51.209Z,100967.18
2019-02-20T16:35:56.976Z,100973.64
2019-02-20T16:39:01.604Z,100970.23
2019-02-20T16:42:05.221Z,100969.75
2019-02-20T16:45:19.992Z,100975.91
2019-02-20T16:48:23.550Z,100979.89
2019-02-20T16:51:30.240Z,100978.48
2019-02-20T16:54:33.751Z,100973.64
2019-02-20T16:57:37.248Z,100979.44
2019-02-20T17:00:40.812Z,100981.68
2019-02-20T17:03:45.258Z,100984.24
2019-02-20T17:06:48.752Z,100986.98
2019-02-20T17:09:52.324Z,100988.72
2019-02-20T17:12:55.991Z,100989.55
2019-02-20T17:15:59.541Z,100990.88
2019-02-20T17:19:02.971Z,100999.61
2019-02-20T17:22:06.492Z,100999.61
2019-02-20T17:25:10.457Z,101001.88
2019-02-20T17:28:14.088Z,101005.86
2019-02-20T17:31:17.583Z,101008.39
2019-02-20T17:34:21.028Z,101018.38
2019-02-20T17:37:25.647Z,101020.47
2019-02-20T17:40:29.227Z,101018.66
2019-02-20T17:43:32.819Z,101022.92
2019-02-20T17:46:36.265Z,101025.58
2019-02-20T17:49:39.706Z,101029.55
2019-02-20T17:52:43.421Z,101033.85
2019-02-20T17:55:46.939Z,101039.53
2019-02-20T17:58:51.549Z,101037.33
2019-02-20T18:01:55.123Z,101037.33
2019-02-20T18:04:58.756Z,101043.80
2019-02-20T18:08:02.353Z,101044.17
2019-02-20T18:11:07.474Z,101048.72
2019-02-20T18:14:11.203Z,101049.88
2019-02-20T18:17:14.811Z,101049.88
2019-02-20T18:20:18.363Z,101057.83
2019-02-20T18:23:21.799Z,101055.97
2019-02-20T18:26:25.326Z,101060.72
2019-02-20T18:29:28.818Z,101055.79
2019-02-20T18:32:32.351Z,101070.30
2019-02-20T18:35:36.852Z,101066.41
2019-02-20T18:38:40.345Z,101060.64
2019-02-20T18:41:43.857Z,101067.73
2019-02-20T18:44:47.337Z,101066.31
2019-02-20T18:47:50.884Z,101068.13
2019-02-20T18:50:55.395Z,101071.16
2019-02-20T18:53:58.883Z,101079.12
2019-02-20T18:57:02.368Z,101079.87
2019-02-20T19:00:08.130Z,101078.08
2019-02-20T19:03:11.621Z,101075.89
2019-02-20T19:06:18.218Z,101080.73
2019-02-20T19:09:27.324Z,101088.69
2019-02-20T19:12:44.179Z,101091.26
2019-02-20T19:16:02.067Z,101087.66
2019-02-20T19:19:31.995Z,101092.21
2019-02-20T19:23:16.685Z,101089.94
2019-02-20T19:26:46.087Z,101095.61
2019-02-20T19:30:17.490Z,101094.37
2019-02-20T19:33:44.920Z,101096.56
2019-02-20T19:37:20.668Z,101100.09
2019-02-20T19:41:11.810Z,101102.41
2019-02-20T19:44:25.622Z,101107.55
2019-02-20T19:48:11.972Z,101113.27
2019-02-20T19:51:50.493Z,101110.61
2019-02-20T19:55:18.232Z,101118.16
2019-02-20T19:58:31.899Z,101118.57
2019-02-20T20:02:00.849Z,101114.19
2019-02-20T20:05:32.479Z,101111.53
2019-02-20T20:09:14.876Z,101115.91
2019-02-20T20:12:44.117Z,101112.31
2019-02-20T20:16:17.593Z,101116.66
2019-02-20T20:20:08.859Z,101120.36
2019-02-20T20:23:43.076Z,101117.00
2019-02-20T20:27:13.070Z,101122.89
2019-02-20T20:31:06.788Z,101123.43
2019-02-20T20:34:42.980Z,101129.86
2019-02-20T20:38:08.173Z,101130.72
2019-02-20T20:41:49.453Z,101124.14
2019-02-20T20:45:15.319Z,101131.69
2019-02-20T20:49:05.945Z,101126.18
2019-02-20T20:52:35.559Z,101122.53
2019-02-20T20:55:52.493Z,101119.38
2019-02-20T20:59:29.975Z,101117.77
2019-02-20T21:02:47.927Z,101117.84
2019-02-20T21:06:30.336Z,101115.20
2019-02-20T21:09:49.905Z,101121.45
2019-02-20T21:13:05.690Z,101118.02
2019-02-20T21:16:47.681Z,101120.67
2019-02-20T21:20:28.476Z,101114.61
2019-02-20T21:24:07.978Z,101112.88
2019-02-20T21:27:46.970Z,101112.97
2019-02-20T21:31:04.474Z,101121.41
2019-02-20T21:34:43.136Z,101113.62
2019-02-20T21:38:32.181Z,101122.53
2019-02-20T21:41:53.603Z,101116.81
2019-02-20T21:45:10.296Z,101116.52
2019-02-20T21:48:32.651Z,101116.44
2019-02-20T21:52:25.268Z,101109.03
2019-02-20T21:56:06.290Z,101116.15
2019-02-20T21:59:20.947Z,101116.98
2019-02-20T22:02:58.362Z,101118.09
2019-02-20T22:06:31.552Z,101118.09
2019-02-20T22:09:58.411Z,101112.88
2019-02-20T22:13:28.567Z,101123.48
2019-02-20T22:17:04.456Z,101129.03
2019-02-20T22:20:34.187Z,101123.36
2019-02-20T22:23:57.620Z,101127.25
2019-02-20T22:27:49.180Z,101126.00
2019-02-20T22:31:18.380Z,101119.54
2019-02-20T22:34:53.014Z,101125.88
2019-02-20T22:38:23.343Z,101131.17
2019-02-20T22:42:19.246Z,101135.61
2019-02-20T22:45:52.673Z,101127.66
2019-02-20T22:49:32.075Z,101132.20
2019-02-20T22:53:10.243Z,101124.80
2019-02-20T22:56:37.648Z,101123.47
2019-02-20T23:00:44.451Z,101120.44
2019-02-20T23:04:15.831Z,101123.55
2019-02-20T23:08:04.059Z,101117.00
2019-02-20T23:11:43.010Z,101123.72
2019-02-20T23:14:56.961Z,101124.58
2019-02-20T23:18:00.571Z,101130.91
2019-02-20T23:21:05.080Z,101132.23
2019-02-20T23:24:09.626Z,101123.42
2019-02-20T23:27:13.164Z,101126.06
2019-02-20T23:30:16.617Z,101126.64
2019-02-20T23:33:20.120Z,101128.50
2019-02-20T23:36:23.611Z,101138.23
2019-02-20T23:39:29.196Z,101137.78
2019-02-20T23:42:32.661Z,101144.02
2019-02-20T23:45:36.160Z,101151.97
2019-02-20T23:48:41.712Z,101152.52
2019-02-20T23:51:45.221Z,101152.89
2019-02-20T23:54:50.766Z,101156.98
2019-02-20T23:57:56.329Z,101153.54
